Time;durP1;ratioP1;P1;durP2;ratioP2;P2;SDS_P1;SDS_P2;PMS_P1;PMS_P2;Temp;Humidity;BMP_temperature;BMP_pressure;BME280_temperature;BME280_humidity;BME280_pressure;Samples;Min_cycle;Max_cycle;Signal;HPM_P1;HPM_P2
2023/08/04 00:00:29;;;;;;;1.50;0.93;;;;;;;;;;6207678;23;20009;-67
2023/08/04 00:02:56;;;;;;;0.90;0.60;;;;;;;;;;6209168;23;20011;-66
2023/08/04 00:05:22;;;;;;;0.80;0.47;;;;;;;;;;6213682;23;20012;-66
2023/08/04 00:07:49;;;;;;;1.07;0.83;;;;;;;;;;6215502;23;20091;-66
2023/08/04 00:10:16;;;;;;;0.50;0.50;;;;;;;;;;6215901;23;20005;-67
2023/08/04 00:12:43;;;;;;;0.67;0.60;;;;;;;;;;6215429;23;20008;-67
2023/08/04 00:15:10;;;;;;;0.80;0.50;;;;;;;;;;6216119;23;20004;-66
2023/08/04 00:17:38;;;;;;;0.53;0.50;;;;;;;;;;6211232;23;20007;-67
2023/08/04 00:20:10;;;;;;;1.53;1.07;;;;;;;;;;6207617;23;20080;-67
2023/08/04 00:22:37;;;;;;;3.90;1.20;;;;;;;;;;6207585;23;20016;-67
2023/08/04 00:25:05;;;;;;;0.67;0.57;;;;;;;;;;6207366;23;20464;-67
2023/08/04 00:27:32;;;;;;;1.10;0.73;;;;;;;;;;6211033;23;20088;-67
2023/08/04 00:29:59;;;;;;;1.50;0.83;;;;;;;;;;6215646;23;20012;-67
2023/08/04 00:32:25;;;;;;;1.47;0.80;;;;;;;;;;6215736;23;20001;-67
2023/08/04 00:34:52;;;;;;;0.37;0.37;;;;;;;;;;6215808;23;20005;-67
2023/08/04 00:37:19;;;;;;;0.70;0.60;;;;;;;;;;6215408;23;20011;-68
2023/08/04 00:39:46;;;;;;;0.47;0.40;;;;;;;;;;6211617;23;20011;-67
2023/08/04 00:42:13;;;;;;;1.20;0.70;;;;;;;;;;6207005;23;20324;-66
2023/08/04 00:44:39;;;;;;;0.87;0.60;;;;;;;;;;6207267;23;20008;-67
2023/08/04 00:47:07;;;;;;;1.47;0.97;;;;;;;;;;6209051;23;20009;-67
2023/08/04 00:49:33;;;;;;;1.73;0.90;;;;;;;;;;6210156;23;20017;-66
2023/08/04 00:52:01;;;;;;;0.97;0.63;;;;;;;;;;6215008;23;20357;-67
2023/08/04 00:54:27;;;;;;;1.10;0.83;;;;;;;;;;6215528;23;20004;-66
2023/08/04 00:56:55;;;;;;;0.67;0.60;;;;;;;;;;6215481;23;20000;-67
2023/08/04 00:59:21;;;;;;;0.67;0.50;;;;;;;;;;6213138;23;20036;-67
2023/08/04 01:01:49;;;;;;;1.13;0.70;;;;;;;;;;6212267;23;20000;-66
2023/08/04 01:04:17;;;;;;;0.67;0.50;;;;;;;;;;6208888;23;20059;-67
2023/08/04 01:06:52;;;;;;;1.60;0.73;;;;;;;;;;6208794;23;20818;-67
2023/08/04 01:09:22;;;;;;;1.53;0.93;;;;;;;;;;6208467;23;20016;-67
2023/08/04 01:11:52;;;;;;;0.47;0.40;;;;;;;;;;6211900;23;20001;-67
2023/08/04 01:14:19;;;;;;;0.70;0.53;;;;;;;;;;6215561;23;20004;-66
2023/08/04 01:16:46;;;;;;;2.97;1.23;;;;;;;;;;6213792;23;20017;-67
2023/08/04 01:19:13;;;;;;;1.57;0.97;;;;;;;;;;6215638;23;20371;-66
2023/08/04 01:21:41;;;;;;;0.60;0.40;;;;;;;;;;6215434;23;20090;-67
2023/08/04 01:24:08;;;;;;;1.83;0.80;;;;;;;;;;6210305;23;20428;-67
2023/08/04 01:26:40;;;;;;;0.60;0.53;;;;;;;;;;6208586;23;20001;-67
2023/08/04 01:29:07;;;;;;;0.83;0.63;;;;;;;;;;6206436;23;20016;-67
2023/08/04 01:31:35;;;;;;;1.53;0.93;;;;;;;;;;6208320;23;20062;-67
2023/08/04 01:34:02;;;;;;;3.33;1.43;;;;;;;;;;6209930;23;20008;-68
2023/08/04 01:36:29;;;;;;;0.93;0.50;;;;;;;;;;6215270;23;20004;-67
2023/08/04 01:38:57;;;;;;;1.50;0.93;;;;;;;;;;6215089;23;20011;-66
2023/08/04 01:41:24;;;;;;;0.77;0.60;;;;;;;;;;6215209;23;20005;-67
2023/08/04 01:43:50;;;;;;;1.07;0.70;;;;;;;;;;6214558;23;20004;-67
2023/08/04 01:46:17;;;;;;;3.50;1.50;;;;;;;;;;6210029;23;20328;-67
2023/08/04 01:48:44;;;;;;;2.23;1.17;;;;;;;;;;6208321;23;20019;-67
2023/08/04 01:51:11;;;;;;;0.63;0.40;;;;;;;;;;6208420;23;20004;-66
2023/08/04 01:53:38;;;;;;;1.20;0.97;;;;;;;;;;6208295;23;20443;-67
2023/08/04 01:56:04;;;;;;;1.03;0.60;;;;;;;;;;6210549;23;20413;-67
2023/08/04 01:58:31;;;;;;;2.20;1.03;;;;;;;;;;6214968;23;20138;-67
2023/08/04 02:00:58;;;;;;;1.67;1.20;;;;;;;;;;6213156;23;20011;-67
2023/08/04 02:03:25;;;;;;;1.03;0.73;;;;;;;;;;6214793;23;20051;-66
2023/08/04 02:05:51;;;;;;;1.83;1.17;;;;;;;;;;6214769;23;20007;-66
2023/08/04 02:08:18;;;;;;;1.83;1.10;;;;;;;;;;6211936;23;20009;-66
2023/08/04 02:10:51;;;;;;;1.70;0.97;;;;;;;;;;6208046;23;20447;-67
2023/08/04 02:13:18;;;;;;;1.83;1.10;;;;;;;;;;6208695;23;20000;-67
2023/08/04 02:15:45;;;;;;;2.80;1.27;;;;;;;;;;6207803;23;20001;-66
2023/08/04 02:18:11;;;;;;;2.20;1.33;;;;;;;;;;6209661;23;20001;-66
2023/08/04 02:20:38;;;;;;;2.00;0.80;;;;;;;;;;6214806;23;20012;-67
2023/08/04 02:23:05;;;;;;;3.03;1.03;;;;;;;;;;6214574;23;20000;-66
2023/08/04 02:25:32;;;;;;;3.53;1.90;;;;;;;;;;6214796;23;20011;-67
2023/08/04 02:27:59;;;;;;;3.83;2.00;;;;;;;;;;6214620;23;20000;-66
2023/08/04 02:30:26;;;;;;;1.87;1.30;;;;;;;;;;6212344;23;20008;-66
2023/08/04 02:32:53;;;;;;;2.77;1.60;;;;;;;;;;6207744;23;20000;-66
2023/08/04 02:35:20;;;;;;;2.17;1.43;;;;;;;;;;6208041;23;20445;-66
2023/08/04 02:37:47;;;;;;;3.07;2.03;;;;;;;;;;6206414;23;20749;-66
2023/08/04 02:40:14;;;;;;;2.87;1.67;;;;;;;;;;6208731;23;20000;-66
2023/08/04 02:42:40;;;;;;;1.67;1.27;;;;;;;;;;6212846;23;20088;-66
2023/08/04 02:45:07;;;;;;;7.17;2.13;;;;;;;;;;6214558;23;20028;-66
2023/08/04 02:47:36;;;;;;;3.10;1.40;;;;;;;;;;6214548;23;20028;-66
2023/08/04 02:50:05;;;;;;;2.10;1.30;;;;;;;;;;6214764;23;20439;-66
2023/08/04 02:52:31;;;;;;;3.63;2.00;;;;;;;;;;6211322;23;20016;-66
2023/08/04 02:54:58;;;;;;;7.57;1.80;;;;;;;;;;6207745;23;20324;-66
2023/08/04 02:57:30;;;;;;;1.50;1.17;;;;;;;;;;6207714;23;20005;-66
2023/08/04 02:59:58;;;;;;;1.57;1.30;;;;;;;;;;6208548;23;20004;-66
2023/08/04 03:02:26;;;;;;;2.37;1.43;;;;;;;;;;6209071;23;20004;-66
2023/08/04 03:04:53;;;;;;;2.13;1.33;;;;;;;;;;6214500;23;20416;-66
2023/08/04 03:07:20;;;;;;;2.90;1.53;;;;;;;;;;6214468;23;20009;-66
2023/08/04 03:09:46;;;;;;;1.67;1.13;;;;;;;;;;6214442;23;20009;-65
2023/08/04 03:12:13;;;;;;;3.03;1.93;;;;;;;;;;6214256;23;20135;-66
2023/08/04 03:14:40;;;;;;;2.07;1.37;;;;;;;;;;6214006;23;20005;-66
2023/08/04 03:17:07;;;;;;;11.47;2.30;;;;;;;;;;6209707;23;20505;-67
2023/08/04 03:19:33;;;;;;;1.90;1.20;;;;;;;;;;6209507;23;20438;-65
2023/08/04 03:22:00;;;;;;;1.33;1.03;;;;;;;;;;6209756;23;20368;-67
2023/08/04 03:24:27;;;;;;;2.47;1.80;;;;;;;;;;6209674;23;20558;-67
2023/08/04 03:26:54;;;;;;;2.50;1.53;;;;;;;;;;6216433;23;20001;-66
2023/08/04 03:29:20;;;;;;;2.30;1.43;;;;;;;;;;6216103;23;20040;-66
2023/08/04 03:31:47;;;;;;;5.40;1.10;;;;;;;;;;6214565;23;20004;-66
2023/08/04 03:34:14;;;;;;;2.53;1.70;;;;;;;;;;6216376;23;20004;-66
2023/08/04 03:36:41;;;;;;;0.90;0.63;;;;;;;;;;6213635;23;20005;-66
2023/08/04 03:39:08;;;;;;;1.77;1.30;;;;;;;;;;6207954;23;20015;-66
2023/08/04 03:41:35;;;;;;;2.70;1.77;;;;;;;;;;6209686;23;20012;-66
2023/08/04 03:44:02;;;;;;;2.17;1.33;;;;;;;;;;6209462;23;20000;-66
2023/08/04 03:46:29;;;;;;;1.60;1.07;;;;;;;;;;6208103;23;20009;-66
2023/08/04 03:48:56;;;;;;;1.90;1.10;;;;;;;;;;6215476;23;20420;-66
2023/08/04 03:51:22;;;;;;;2.20;1.47;;;;;;;;;;6216241;23;20000;-66
2023/08/04 03:53:49;;;;;;;2.00;1.27;;;;;;;;;;6214090;23;20005;-66
2023/08/04 03:56:16;;;;;;;2.83;1.60;;;;;;;;;;6216156;23;20004;-66
2023/08/04 03:58:43;;;;;;;34.33;2.40;;;;;;;;;;6213904;23;20507;-66
2023/08/04 04:01:10;;;;;;;1.90;1.20;;;;;;;;;;6206557;23;20612;-67
2023/08/04 04:03:37;;;;;;;3.20;1.20;;;;;;;;;;6208492;23;20026;-67
2023/08/04 04:06:03;;;;;;;2.77;1.67;;;;;;;;;;6209387;23;20000;-67
2023/08/04 04:08:30;;;;;;;19.27;2.03;;;;;;;;;;6209172;23;20372;-67
2023/08/04 04:10:58;;;;;;;1.13;0.97;;;;;;;;;;6214284;23;20008;-67
2023/08/04 04:13:24;;;;;;;1.50;1.27;;;;;;;;;;6215942;23;20012;-66
2023/08/04 04:15:51;;;;;;;1.50;1.07;;;;;;;;;;6215895;23;20005;-67
2023/08/04 04:18:18;;;;;;;8.20;1.63;;;;;;;;;;6215980;23;20328;-66
2023/08/04 04:20:45;;;;;;;1.10;0.90;;;;;;;;;;6215867;23;20032;-66
2023/08/04 04:23:11;;;;;;;2.30;1.33;;;;;;;;;;6209775;23;20076;-66
2023/08/04 04:25:38;;;;;;;1.27;1.10;;;;;;;;;;6207172;23;20403;-66
2023/08/04 04:28:05;;;;;;;3.10;1.67;;;;;;;;;;6207641;23;20401;-66
2023/08/04 04:30:32;;;;;;;2.60;1.33;;;;;;;;;;6208993;23;20016;-67
2023/08/04 04:32:59;;;;;;;3.63;1.83;;;;;;;;;;6213688;23;20412;-66
2023/08/04 04:35:26;;;;;;;9.50;1.40;;;;;;;;;;6215716;23;20007;-66
2023/08/04 04:37:52;;;;;;;2.40;1.43;;;;;;;;;;6215801;23;20356;-65
2023/08/04 04:40:19;;;;;;;2.43;1.67;;;;;;;;;;6215447;23;20004;-66
2023/08/04 04:42:46;;;;;;;7.27;1.30;;;;;;;;;;6214979;23;20079;-66
2023/08/04 04:45:13;;;;;;;2.20;1.43;;;;;;;;;;6208954;23;20004;-66
2023/08/04 04:47:40;;;;;;;4.23;0.90;;;;;;;;;;6209392;23;20075;-66
2023/08/04 04:50:07;;;;;;;1.87;1.43;;;;;;;;;;6207554;23;20391;-66
2023/08/04 04:52:38;;;;;;;1.60;1.00;;;;;;;;;;6208628;23;20475;-67
2023/08/04 04:55:06;;;;;;;2.50;1.30;;;;;;;;;;6213523;23;20008;-65
2023/08/04 04:57:37;;;;;;;1.57;1.23;;;;;;;;;;6214671;23;20412;-66
2023/08/04 05:00:05;;;;;;;2.53;1.30;;;;;;;;;;6215313;23;20001;-66
2023/08/04 05:02:31;;;;;;;2.67;1.70;;;;;;;;;;6215741;23;20007;-66
2023/08/04 05:04:58;;;;;;;18.53;1.37;;;;;;;;;;6214339;23;20005;-66
2023/08/04 05:07:25;;;;;;;3.03;0.90;;;;;;;;;;6210519;23;20016;-66
2023/08/04 05:09:52;;;;;;;1.87;1.37;;;;;;;;;;6209025;23;20016;-66
2023/08/04 05:12:18;;;;;;;11.23;1.67;;;;;;;;;;6209038;23;20083;-66
2023/08/04 05:14:45;;;;;;;1.70;0.70;;;;;;;;;;6208734;23;20368;-67
2023/08/04 05:17:12;;;;;;;1.00;0.90;;;;;;;;;;6212818;23;20124;-67
2023/08/04 05:19:39;;;;;;;4.43;1.83;;;;;;;;;;6215374;23;20001;-66
2023/08/04 05:22:06;;;;;;;9.97;1.80;;;;;;;;;;6215438;23;20005;-66
2023/08/04 05:24:33;;;;;;;4.77;1.03;;;;;;;;;;6215357;23;20480;-67
2023/08/04 05:27:00;;;;;;;14.17;1.57;;;;;;;;;;6215339;23;20009;-67
2023/08/04 05:29:26;;;;;;;2.70;1.67;;;;;;;;;;6210772;23;20447;-67
2023/08/04 05:31:53;;;;;;;3.20;2.20;;;;;;;;;;6208666;23;20367;-67
2023/08/04 05:34:20;;;;;;;3.10;1.30;;;;;;;;;;6208714;23;20324;-67
2023/08/04 05:36:47;;;;;;;3.43;1.77;;;;;;;;;;6206471;23;20019;-67
2023/08/04 05:39:14;;;;;;;2.87;1.30;;;;;;;;;;6211861;23;20001;-67
2023/08/04 05:41:44;;;;;;;1.57;0.90;;;;;;;;;;6215073;23;20016;-67
2023/08/04 05:44:10;;;;;;;1.20;1.00;;;;;;;;;;6215208;23;20011;-67
2023/08/04 05:46:37;;;;;;;13.57;2.27;;;;;;;;;;6214548;23;20015;-67
2023/08/04 05:49:04;;;;;;;6.77;1.90;;;;;;;;;;6213336;23;20324;-69
2023/08/04 05:51:31;;;;;;;3.73;1.50;;;;;;;;;;6211328;23;20012;-70
2023/08/04 05:53:58;;;;;;;3.17;1.90;;;;;;;;;;6208653;23;20328;-69
2023/08/04 05:56:24;;;;;;;1.27;0.90;;;;;;;;;;6208938;23;20068;-70
2023/08/04 05:58:51;;;;;;;4.97;1.30;;;;;;;;;;6208825;23;20004;-69
2023/08/04 06:01:18;;;;;;;2.13;1.23;;;;;;;;;;6211029;23;20047;-70
2023/08/04 06:03:46;;;;;;;7.63;1.73;;;;;;;;;;6214268;23;20486;-69
2023/08/04 06:06:13;;;;;;;1.07;0.83;;;;;;;;;;6214488;23;20010;-69
2023/08/04 06:08:42;;;;;;;3.00;1.80;;;;;;;;;;6215053;23;20016;-69
2023/08/04 06:11:09;;;;;;;1.73;0.87;;;;;;;;;;6214863;23;20012;-69
2023/08/04 06:13:36;;;;;;;1.20;0.87;;;;;;;;;;6211862;23;20000;-70
2023/08/04 06:16:04;;;;;;;1.23;1.00;;;;;;;;;;6208589;23;20004;-67
2023/08/04 06:18:31;;;;;;;4.13;1.33;;;;;;;;;;6206695;23;20013;-69
2023/08/04 06:20:58;;;;;;;1.57;1.23;;;;;;;;;;6208570;23;20009;-69
2023/08/04 06:23:25;;;;;;;1.30;1.00;;;;;;;;;;6210261;23;20012;-70
2023/08/04 06:25:52;;;;;;;3.13;1.00;;;;;;;;;;6214880;23;20004;-69
2023/08/04 06:28:19;;;;;;;1.70;1.17;;;;;;;;;;6214443;23;20008;-69
2023/08/04 06:30:45;;;;;;;2.77;0.70;;;;;;;;;;6214711;23;20012;-69
2023/08/04 06:33:12;;;;;;;5.33;1.23;;;;;;;;;;6214632;23;20329;-70
2023/08/04 06:35:41;;;;;;;2.00;1.30;;;;;;;;;;6211643;23;20429;-70
2023/08/04 06:38:11;;;;;;;3.20;0.53;;;;;;;;;;6208235;23;20008;-70
2023/08/04 06:40:38;;;;;;;2.17;1.10;;;;;;;;;;6207866;23;20031;-69
2023/08/04 06:43:06;;;;;;;1.10;0.87;;;;;;;;;;6208112;23;20067;-69
2023/08/04 06:45:32;;;;;;;1.20;0.90;;;;;;;;;;6209839;23;20088;-70
2023/08/04 06:47:59;;;;;;;1.97;1.07;;;;;;;;;;6214322;23;20005;-70
2023/08/04 06:50:26;;;;;;;0.87;0.60;;;;;;;;;;6213843;23;20007;-69
2023/08/04 06:52:53;;;;;;;5.50;1.20;;;;;;;;;;6214415;23;20000;-70
2023/08/04 06:55:20;;;;;;;1.43;1.20;;;;;;;;;;6214606;23;20123;-70
2023/08/04 06:57:46;;;;;;;1.40;0.93;;;;;;;;;;6212180;23;20009;-70
2023/08/04 07:00:13;;;;;;;9.33;1.00;;;;;;;;;;6208085;23;20420;-70
2023/08/04 07:02:42;;;;;;;0.83;0.57;;;;;;;;;;6208312;23;20039;-70
2023/08/04 07:05:08;;;;;;;0.97;0.73;;;;;;;;;;6208005;23;20004;-70
2023/08/04 07:07:35;;;;;;;1.17;0.83;;;;;;;;;;6208854;23;20079;-70
2023/08/04 07:10:03;;;;;;;0.83;0.77;;;;;;;;;;6214548;23;20001;-70
2023/08/04 07:12:30;;;;;;;1.17;0.83;;;;;;;;;;6212759;23;20009;-70
2023/08/04 07:14:56;;;;;;;0.33;0.33;;;;;;;;;;6214466;23;20013;-70
2023/08/04 07:17:23;;;;;;;2.83;1.07;;;;;;;;;;6214197;23;20005;-70
2023/08/04 07:19:50;;;;;;;2.90;1.13;;;;;;;;;;6212973;23;20000;-70
2023/08/04 07:22:17;;;;;;;4.47;0.87;;;;;;;;;;6207812;23;20005;-69
2023/08/04 07:24:43;;;;;;;0.90;0.63;;;;;;;;;;6206686;23;20412;-70
2023/08/04 07:27:10;;;;;;;4.17;0.77;;;;;;;;;;6208415;23;20679;-70
2023/08/04 07:29:37;;;;;;;1.80;0.97;;;;;;;;;;6207896;23;20051;-70
2023/08/04 07:32:04;;;;;;;2.10;1.10;;;;;;;;;;6214255;23;20007;-70
2023/08/04 07:34:32;;;;;;;5.43;0.40;;;;;;;;;;6214288;23;20386;-70
2023/08/04 07:36:59;;;;;;;0.50;0.40;;;;;;;;;;6212815;23;20004;-70
2023/08/04 07:39:25;;;;;;;1.87;0.70;;;;;;;;;;6212436;23;20004;-70
2023/08/04 07:41:52;;;;;;;1.33;0.70;;;;;;;;;;6211935;23;20343;-70
2023/08/04 07:44:19;;;;;;;1.10;1.00;;;;;;;;;;6206358;23;20005;-70
2023/08/04 07:46:46;;;;;;;6.83;0.97;;;;;;;;;;6207708;23;20080;-69
2023/08/04 07:49:12;;;;;;;1.80;1.10;;;;;;;;;;6207920;23;20012;-70
2023/08/04 07:51:40;;;;;;;2.20;1.27;;;;;;;;;;6207732;23;20490;-69
2023/08/04 07:54:07;;;;;;;1.00;0.80;;;;;;;;;;6212735;23;20015;-69
2023/08/04 07:56:34;;;;;;;1.70;1.23;;;;;;;;;;6213786;23;20446;-69
2023/08/04 07:59:00;;;;;;;1.20;0.90;;;;;;;;;;6214149;23;20428;-70
2023/08/04 08:01:27;;;;;;;5.97;1.93;;;;;;;;;;6215793;23;20491;-70
2023/08/04 08:03:54;;;;;;;3.47;1.40;;;;;;;;;;6216479;23;20005;-69
2023/08/04 08:06:21;;;;;;;15.80;1.43;;;;;;;;;;6209483;23;20450;-70
2023/08/04 08:08:48;;;;;;;2.43;1.00;;;;;;;;;;6209366;23;20127;-70
2023/08/04 08:11:14;;;;;;;2.07;0.90;;;;;;;;;;6209570;23;20074;-70
2023/08/04 08:13:41;;;;;;;1.20;0.90;;;;;;;;;;6209331;23;20012;-70
2023/08/04 08:16:12;;;;;;;2.10;1.27;;;;;;;;;;6215206;23;20617;-70
2023/08/04 08:18:39;;;;;;;2.27;1.00;;;;;;;;;;6214373;23;20425;-69
2023/08/04 08:21:07;;;;;;;19.23;1.00;;;;;;;;;;6214331;23;20419;-70
2023/08/04 08:23:35;;;;;;;3.33;1.10;;;;;;;;;;6214208;23;20009;-70
2023/08/04 08:26:01;;;;;;;1.27;1.00;;;;;;;;;;6215860;23;20083;-69
2023/08/04 08:28:28;;;;;;;1.53;0.90;;;;;;;;;;6208781;23;20021;-70
2023/08/04 08:30:55;;;;;;;2.90;1.27;;;;;;;;;;6209271;23;20012;-70
2023/08/04 08:33:22;;;;;;;23.40;1.10;;;;;;;;;;6209301;23;20436;-69
2023/08/04 08:35:49;;;;;;;1.87;1.27;;;;;;;;;;6209396;23;20004;-70
2023/08/04 08:38:16;;;;;;;2.07;1.20;;;;;;;;;;6214937;23;20420;-70
2023/08/04 08:40:43;;;;;;;1.07;0.87;;;;;;;;;;6215724;23;20001;-69
2023/08/04 08:43:09;;;;;;;1.83;0.90;;;;;;;;;;6215712;23;20079;-69
2023/08/04 08:45:37;;;;;;;3.13;1.37;;;;;;;;;;6215525;23;20060;-70
2023/08/04 08:48:05;;;;;;;1.27;0.77;;;;;;;;;;6215512;23;20036;-69
2023/08/04 08:50:33;;;;;;;2.50;1.23;;;;;;;;;;6209407;23;20412;-70
2023/08/04 08:53:06;;;;;;;8.07;1.00;;;;;;;;;;6209058;23;20459;-70
2023/08/04 08:55:33;;;;;;;1.93;1.10;;;;;;;;;;6209146;23;20008;-69
2023/08/04 08:58:02;;;;;;;2.47;1.47;;;;;;;;;;6208570;23;20039;-69
2023/08/04 09:00:29;;;;;;;1.47;0.93;;;;;;;;;;6214673;23;20005;-69
2023/08/04 09:02:56;;;;;;;1.10;0.50;;;;;;;;;;6215410;23;20416;-69
2023/08/04 09:05:23;;;;;;;0.90;0.60;;;;;;;;;;6215711;23;20072;-69
2023/08/04 09:07:50;;;;;;;1.70;1.27;;;;;;;;;;6215411;23;20078;-69
2023/08/04 09:10:17;;;;;;;0.80;0.67;;;;;;;;;;6215653;23;20459;-70
2023/08/04 09:12:48;;;;;;;1.17;0.90;;;;;;;;;;6209041;23;20001;-70
2023/08/04 09:15:15;;;;;;;1.43;1.00;;;;;;;;;;6208840;23;20336;-70
2023/08/04 09:17:42;;;;;;;4.50;1.30;;;;;;;;;;6209202;23;20648;-70
2023/08/04 09:20:10;;;;;;;1.03;0.90;;;;;;;;;;6208853;23;20072;-69
2023/08/04 09:22:42;;;;;;;2.13;0.70;;;;;;;;;;6214300;23;20011;-70
2023/08/04 09:25:09;;;;;;;0.97;0.70;;;;;;;;;;6215860;23;20004;-70
2023/08/04 09:27:42;;;;;;;1.27;0.90;;;;;;;;;;6215171;23;20023;-69
2023/08/04 09:30:10;;;;;;;2.20;0.97;;;;;;;;;;6215098;23;20016;-70
2023/08/04 09:32:50;;;;;;;5.40;1.43;;;;;;;;;;6215361;23;20008;-69
2023/08/04 09:35:17;;;;;;;2.10;1.10;;;;;;;;;;6208743;23;20005;-69
2023/08/04 09:37:44;;;;;;;26.00;1.70;;;;;;;;;;6208519;23;20001;-70
2023/08/04 09:40:18;;;;;;;2.17;1.23;;;;;;;;;;6208473;23;20072;-69
2023/08/04 09:42:45;;;;;;;2.97;1.17;;;;;;;;;;6208723;23;20066;-69
2023/08/04 09:45:14;;;;;;;2.90;1.30;;;;;;;;;;6214626;23;20500;-69
2023/08/04 09:47:40;;;;;;;2.03;0.83;;;;;;;;;;6214777;23;20016;-70
2023/08/04 09:50:10;;;;;;;1.87;1.30;;;;;;;;;;6214880;23;20009;-69
2023/08/04 09:52:37;;;;;;;3.00;1.53;;;;;;;;;;6214908;23;20015;-69
2023/08/04 09:55:04;;;;;;;1.70;1.13;;;;;;;;;;6214370;23;20005;-69
2023/08/04 09:57:31;;;;;;;3.83;1.27;;;;;;;;;;6208419;23;20004;-69
2023/08/04 09:59:58;;;;;;;2.50;1.10;;;;;;;;;;6208709;23;20004;-69
2023/08/04 10:02:25;;;;;;;4.13;1.13;;;;;;;;;;6206884;23;20012;-70
2023/08/04 10:04:52;;;;;;;0.97;0.67;;;;;;;;;;6208372;23;20024;-69
2023/08/04 10:07:19;;;;;;;1.83;1.10;;;;;;;;;;6212631;23;20483;-69
2023/08/04 10:09:49;;;;;;;1.90;1.23;;;;;;;;;;6214904;23;20065;-69
2023/08/04 10:12:17;;;;;;;3.70;1.30;;;;;;;;;;6214915;23;20005;-69
2023/08/04 10:14:44;;;;;;;2.00;1.20;;;;;;;;;;6214871;23;20005;-70
2023/08/04 10:17:12;;;;;;;1.17;0.97;;;;;;;;;;6214801;23;20011;-69
2023/08/04 10:19:39;;;;;;;7.10;1.13;;;;;;;;;;6206510;23;20011;-69
2023/08/04 10:22:08;;;;;;;12.00;1.40;;;;;;;;;;6206618;23;20009;-69
2023/08/04 10:24:35;;;;;;;10.23;1.90;;;;;;;;;;6206914;23;20083;-69
2023/08/04 10:27:12;;;;;;;1.87;1.30;;;;;;;;;;6208030;23;20012;-69
2023/08/04 10:29:40;;;;;;;1.40;1.00;;;;;;;;;;6214219;23;20013;-69
2023/08/04 10:32:08;;;;;;;0.77;0.70;;;;;;;;;;6214517;23;20012;-69
2023/08/04 10:34:42;;;;;;;1.43;0.97;;;;;;;;;;6214740;23;20008;-69
2023/08/04 10:37:09;;;;;;;1.43;0.90;;;;;;;;;;6214308;23;20011;-69
2023/08/04 10:39:37;;;;;;;0.93;0.57;;;;;;;;;;6214161;23;20004;-69
2023/08/04 10:42:13;;;;;;;0.63;0.40;;;;;;;;;;6208301;23;20024;-70
2023/08/04 10:44:53;;;;;;;3.53;1.13;;;;;;;;;;6208234;23;20063;-69
2023/08/04 10:47:42;;;;;;;1.97;1.03;;;;;;;;;;6208110;23;20004;-68
2023/08/04 10:50:09;;;;;;;1.43;0.90;;;;;;;;;;6201482;23;20019;-69
2023/08/04 10:52:37;;;;;;;1.17;0.77;;;;;;;;;;6214640;23;20436;-69
2023/08/04 10:55:06;;;;;;;1.20;0.77;;;;;;;;;;6214680;23;20023;-69
2023/08/04 10:57:33;;;;;;;0.80;0.67;;;;;;;;;;6214360;23;20329;-69
2023/08/04 11:00:05;;;;;;;1.70;0.80;;;;;;;;;;6213970;23;20068;-69
2023/08/04 11:02:33;;;;;;;1.37;0.70;;;;;;;;;;6212253;23;20001;-69
2023/08/04 11:05:00;;;;;;;1.80;0.97;;;;;;;;;;6207837;23;20000;-69
2023/08/04 11:07:27;;;;;;;1.57;1.20;;;;;;;;;;6207897;23;20009;-69
2023/08/04 11:09:54;;;;;;;1.43;0.73;;;;;;;;;;6207908;23;20009;-69
2023/08/04 11:12:21;;;;;;;1.13;0.90;;;;;;;;;;6209296;23;20000;-68
2023/08/04 11:14:51;;;;;;;1.93;0.90;;;;;;;;;;6214188;23;20004;-69
2023/08/04 11:17:19;;;;;;;2.93;1.40;;;;;;;;;;6212760;23;20096;-69
2023/08/04 11:19:47;;;;;;;0.70;0.57;;;;;;;;;;6214718;23;20007;-69
2023/08/04 11:22:15;;;;;;;2.73;0.97;;;;;;;;;;6214467;23;20007;-69
2023/08/04 11:24:44;;;;;;;0.37;0.23;;;;;;;;;;6212323;23;20009;-69
2023/08/04 11:27:15;;;;;;;7.63;0.97;;;;;;;;;;6207374;23;20585;-69
2023/08/04 11:29:42;;;;;;;1.13;0.70;;;;;;;;;;6207467;23;20017;-69
2023/08/04 11:32:10;;;;;;;1.03;0.70;;;;;;;;;;6207896;23;20084;-69
2023/08/04 11:34:40;;;;;;;1.03;0.80;;;;;;;;;;6209176;23;20005;-69
2023/08/04 11:37:07;;;;;;;2.20;0.90;;;;;;;;;;6216474;23;20034;-69
2023/08/04 11:39:35;;;;;;;1.43;0.73;;;;;;;;;;6216481;23;20001;-70
2023/08/04 11:42:02;;;;;;;1.30;0.90;;;;;;;;;;6215812;23;20127;-69
2023/08/04 11:44:30;;;;;;;1.30;0.93;;;;;;;;;;6216440;23;20424;-69
2023/08/04 11:46:57;;;;;;;3.30;0.90;;;;;;;;;;6214091;23;20032;-69
2023/08/04 11:49:24;;;;;;;1.00;0.77;;;;;;;;;;6208113;23;20092;-69
2023/08/04 11:51:51;;;;;;;0.97;0.73;;;;;;;;;;6210035;23;20000;-69
2023/08/04 11:54:24;;;;;;;2.63;1.20;;;;;;;;;;6209882;23;20019;-69
2023/08/04 11:56:59;;;;;;;1.33;0.97;;;;;;;;;;6211090;23;20129;-69
2023/08/04 11:59:26;;;;;;;3.00;0.95;;;;;;;;;;6216291;23;20486;-69
2023/08/04 12:02:06;;;;;;;1.97;1.13;;;;;;;;;;6216251;23;20425;-70
2023/08/04 12:04:33;;;;;;;7.77;1.57;;;;;;;;;;6216198;23;20008;-69
2023/08/04 12:07:03;;;;;;;1.00;0.73;;;;;;;;;;6215625;23;20007;-69
2023/08/04 12:09:30;;;;;;;5.33;1.17;;;;;;;;;;6212919;23;20012;-69
2023/08/04 12:11:57;;;;;;;1.63;1.00;;;;;;;;;;6209664;23;20086;-69
2023/08/04 12:14:24;;;;;;;1.43;0.80;;;;;;;;;;6209554;23;20007;-69
2023/08/04 12:17:01;;;;;;;1.50;0.90;;;;;;;;;;6207987;23;20320;-69
2023/08/04 12:19:29;;;;;;;2.20;1.07;;;;;;;;;;6211507;23;20000;-68
2023/08/04 12:21:58;;;;;;;1.47;1.07;;;;;;;;;;6215726;23;20007;-69
2023/08/04 12:24:25;;;;;;;1.37;1.00;;;;;;;;;;6216056;23;20028;-69
2023/08/04 12:26:52;;;;;;;2.57;1.43;;;;;;;;;;6215717;23;20001;-69
2023/08/04 12:29:19;;;;;;;2.07;1.00;;;;;;;;;;6214241;23;20344;-69
2023/08/04 12:31:45;;;;;;;1.93;1.20;;;;;;;;;;6212795;23;20016;-69
2023/08/04 12:34:12;;;;;;;5.27;1.20;;;;;;;;;;6209347;23;20000;-69
2023/08/04 12:36:40;;;;;;;2.57;1.43;;;;;;;;;;6209138;23;20072;-69
2023/08/04 12:39:08;;;;;;;2.30;1.37;;;;;;;;;;6208929;23;20028;-69
2023/08/04 12:41:35;;;;;;;2.07;1.03;;;;;;;;;;6209871;23;20009;-68
2023/08/04 12:44:02;;;;;;;1.47;0.83;;;;;;;;;;6215852;23;20005;-69
2023/08/04 12:46:29;;;;;;;1.27;0.90;;;;;;;;;;6215674;23;20421;-69
2023/08/04 12:48:56;;;;;;;0.90;0.70;;;;;;;;;;6215778;23;20039;-69
2023/08/04 12:51:24;;;;;;;0.57;0.37;;;;;;;;;;6214991;23;20001;-69
2023/08/04 12:53:51;;;;;;;0.97;0.70;;;;;;;;;;6213101;23;20012;-69
2023/08/04 12:56:18;;;;;;;1.67;0.80;;;;;;;;;;6208979;23;20432;-69
2023/08/04 12:58:45;;;;;;;0.43;0.37;;;;;;;;;;6209104;23;20031;-69
2023/08/04 13:01:11;;;;;;;0.97;0.67;;;;;;;;;;6209315;23;20009;-69
2023/08/04 13:03:38;;;;;;;3.00;2.07;;;;;;;;;;6210645;23;20001;-69
2023/08/04 13:06:05;;;;;;;6.33;3.90;;;;;;;;;;6215554;23;20078;-69
2023/08/04 13:08:32;;;;;;;3.30;2.20;;;;;;;;;;6214957;23;20039;-69
2023/08/04 13:10:59;;;;;;;1.93;1.23;;;;;;;;;;6215602;23;20004;-69
2023/08/04 13:13:26;;;;;;;2.20;1.43;;;;;;;;;;6215419;23;20000;-69
2023/08/04 13:15:53;;;;;;;4.93;1.63;;;;;;;;;;6213954;23;20008;-69
2023/08/04 13:18:20;;;;;;;1.40;0.83;;;;;;;;;;6208972;23;20005;-69
2023/08/04 13:20:49;;;;;;;1.23;0.90;;;;;;;;;;6208836;23;20024;-69
2023/08/04 13:23:16;;;;;;;2.00;1.20;;;;;;;;;;6208583;23;20006;-69
2023/08/04 13:25:43;;;;;;;1.17;0.87;;;;;;;;;;6209865;23;20327;-69
2023/08/04 13:28:10;;;;;;;0.63;0.57;;;;;;;;;;6215249;23;20000;-69
2023/08/04 13:30:36;;;;;;;2.20;1.00;;;;;;;;;;6214820;23;20066;-69
2023/08/04 13:33:03;;;;;;;0.80;0.73;;;;;;;;;;6215001;23;20027;-69
2023/08/04 13:35:30;;;;;;;2.63;0.97;;;;;;;;;;6214732;23;20008;-69
2023/08/04 13:37:57;;;;;;;0.90;0.77;;;;;;;;;;6212917;23;20145;-68
2023/08/04 13:40:23;;;;;;;0.63;0.53;;;;;;;;;;6209089;23;20022;-69
2023/08/04 13:42:50;;;;;;;2.10;1.47;;;;;;;;;;6208803;23;20106;-69
2023/08/04 13:45:17;;;;;;;2.07;1.37;;;;;;;;;;6208516;23;20026;-70
2023/08/04 13:47:45;;;;;;;4.33;2.07;;;;;;;;;;6208453;23;20075;-69
2023/08/04 13:50:12;;;;;;;2.87;1.67;;;;;;;;;;6213322;23;20013;-70
2023/08/04 13:52:38;;;;;;;18.47;2.40;;;;;;;;;;6215106;23;20009;-70
2023/08/04 13:55:05;;;;;;;3.27;1.97;;;;;;;;;;6214550;23;20000;-69
2023/08/04 13:57:32;;;;;;;2.40;1.53;;;;;;;;;;6214515;23;20001;-70
2023/08/04 13:59:59;;;;;;;2.63;1.47;;;;;;;;;;6214472;23;20005;-70
2023/08/04 14:02:27;;;;;;;2.20;1.30;;;;;;;;;;6208788;23;20023;-70
2023/08/04 14:04:54;;;;;;;2.97;1.53;;;;;;;;;;6206924;23;20016;-71
2023/08/04 14:07:21;;;;;;;1.93;1.30;;;;;;;;;;6207161;23;20096;-71
2023/08/04 14:09:48;;;;;;;1.57;1.10;;;;;;;;;;6208471;23;20380;-70
2023/08/04 14:12:15;;;;;;;1.67;1.07;;;;;;;;;;6214968;23;20023;-71
2023/08/04 14:14:41;;;;;;;6.60;1.27;;;;;;;;;;6215186;23;20105;-71
2023/08/04 14:17:08;;;;;;;3.10;1.37;;;;;;;;;;6215005;23;20001;-71
2023/08/04 14:19:35;;;;;;;1.63;0.80;;;;;;;;;;6213184;23;20105;-71
2023/08/04 14:22:02;;;;;;;1.10;0.83;;;;;;;;;;6214608;23;20004;-70
2023/08/04 14:24:29;;;;;;;1.60;1.27;;;;;;;;;;6208214;23;20054;-71
2023/08/04 14:26:56;;;;;;;1.80;1.17;;;;;;;;;;6206389;23;20000;-72
2023/08/04 14:29:22;;;;;;;1.10;0.73;;;;;;;;;;6208196;23;20016;-71
2023/08/04 14:31:49;;;;;;;1.23;0.90;;;;;;;;;;6208088;23;20712;-71
2023/08/04 14:34:16;;;;;;;3.47;1.27;;;;;;;;;;6211811;23;20087;-71
2023/08/04 14:36:43;;;;;;;4.93;1.03;;;;;;;;;;6214570;23;20055;-70
2023/08/04 14:39:10;;;;;;;0.77;0.63;;;;;;;;;;6214673;23;20005;-71
2023/08/04 14:41:37;;;;;;;2.77;1.13;;;;;;;;;;6214669;23;20051;-70
2023/08/04 14:44:03;;;;;;;2.00;1.20;;;;;;;;;;6214289;23;20008;-71